sensor_id;sensor_type;location;lat;lon;timestamp;temperature;humidity
6948;DHT22;3513;47.664;9.162;2023-07-20T00:01:59;21.30;77.10
6948;DHT22;3513;47.664;9.162;2023-07-20T00:04:24;21.20;77.40
6948;DHT22;3513;47.664;9.162;2023-07-20T00:06:50;21.10;77.00
6948;DHT22;3513;47.664;9.162;2023-07-20T00:09:15;21.10;76.80
6948;DHT22;3513;47.664;9.162;2023-07-20T00:11:48;21.10;77.40
6948;DHT22;3513;47.664;9.162;2023-07-20T00:14:16;21.00;77.40
6948;DHT22;3513;47.664;9.162;2023-07-20T00:16:41;21.00;77.80
6948;DHT22;3513;47.664;9.162;2023-07-20T00:19:07;21.00;78.80
6948;DHT22;3513;47.664;9.162;2023-07-20T00:21:33;21.00;79.30
6948;DHT22;3513;47.664;9.162;2023-07-20T00:23:59;21.00;79.50
6948;DHT22;3513;47.664;9.162;2023-07-20T00:26:24;21.00;80.40
6948;DHT22;3513;47.664;9.162;2023-07-20T00:28:50;21.10;80.70
6948;DHT22;3513;47.664;9.162;2023-07-20T00:31:17;21.10;80.50
6948;DHT22;3513;47.664;9.162;2023-07-20T00:33:42;21.00;81.60
6948;DHT22;3513;47.664;9.162;2023-07-20T00:36:08;21.10;81.80
6948;DHT22;3513;47.664;9.162;2023-07-20T00:38:33;21.00;81.50
6948;DHT22;3513;47.664;9.162;2023-07-20T00:40:59;21.00;81.20
6948;DHT22;3513;47.664;9.162;2023-07-20T00:43:25;20.90;81.50
6948;DHT22;3513;47.664;9.162;2023-07-20T00:45:50;20.90;81.40
6948;DHT22;3513;47.664;9.162;2023-07-20T00:48:16;20.80;80.10
6948;DHT22;3513;47.664;9.162;2023-07-20T00:50:42;20.80;80.50
6948;DHT22;3513;47.664;9.162;2023-07-20T00:53:08;20.80;80.00
6948;DHT22;3513;47.664;9.162;2023-07-20T00:55:34;20.70;77.80
6948;DHT22;3513;47.664;9.162;2023-07-20T00:58:00;20.80;77.80
6948;DHT22;3513;47.664;9.162;2023-07-20T01:00:25;20.70;77.60
6948;DHT22;3513;47.664;9.162;2023-07-20T01:02:51;20.70;78.50
6948;DHT22;3513;47.664;9.162;2023-07-20T01:05:17;20.70;77.20
6948;DHT22;3513;47.664;9.162;2023-07-20T01:10:43;20.70;75.80
6948;DHT22;3513;47.664;9.162;2023-07-20T01:13:10;20.70;74.50
6948;DHT22;3513;47.664;9.162;2023-07-20T01:15:36;20.70;75.20
6948;DHT22;3513;47.664;9.162;2023-07-20T01:18:02;20.70;75.80
6948;DHT22;3513;47.664;9.162;2023-07-20T01:20:31;20.80;74.90
6948;DHT22;3513;47.664;9.162;2023-07-20T01:23:36;20.90;76.60
6948;DHT22;3513;47.664;9.162;2023-07-20T01:26:11;20.80;74.90
6948;DHT22;3513;47.664;9.162;2023-07-20T01:31:27;20.80;75.10
6948;DHT22;3513;47.664;9.162;2023-07-20T01:33:58;20.80;74.20
6948;DHT22;3513;47.664;9.162;2023-07-20T01:36:26;20.90;72.80
6948;DHT22;3513;47.664;9.162;2023-07-20T01:38:53;20.90;72.60
6948;DHT22;3513;47.664;9.162;2023-07-20T01:41:20;20.70;72.70
6948;DHT22;3513;47.664;9.162;2023-07-20T01:43:46;20.60;72.90
6948;DHT22;3513;47.664;9.162;2023-07-20T01:46:11;20.60;71.60
6948;DHT22;3513;47.664;9.162;2023-07-20T01:48:37;20.60;71.40
6948;DHT22;3513;47.664;9.162;2023-07-20T01:51:02;20.60;71.50
6948;DHT22;3513;47.664;9.162;2023-07-20T01:53:28;20.70;70.00
6948;DHT22;3513;47.664;9.162;2023-07-20T01:55:54;20.70;70.00
6948;DHT22;3513;47.664;9.162;2023-07-20T01:58:20;20.70;68.90
6948;DHT22;3513;47.664;9.162;2023-07-20T02:00:46;20.70;68.50
6948;DHT22;3513;47.664;9.162;2023-07-20T02:03:11;20.60;68.80
6948;DHT22;3513;47.664;9.162;2023-07-20T02:05:42;20.70;68.90
6948;DHT22;3513;47.664;9.162;2023-07-20T02:08:07;20.60;70.10
6948;DHT22;3513;47.664;9.162;2023-07-20T02:10:34;20.50;70.80
6948;DHT22;3513;47.664;9.162;2023-07-20T02:12:59;20.40;71.00
6948;DHT22;3513;47.664;9.162;2023-07-20T02:15:25;20.30;71.10
6948;DHT22;3513;47.664;9.162;2023-07-20T02:17:51;20.20;71.60
6948;DHT22;3513;47.664;9.162;2023-07-20T02:20:16;20.20;72.70
6948;DHT22;3513;47.664;9.162;2023-07-20T02:22:42;20.20;72.10
6948;DHT22;3513;47.664;9.162;2023-07-20T02:25:08;20.10;71.70
6948;DHT22;3513;47.664;9.162;2023-07-20T02:27:34;20.00;71.60
6948;DHT22;3513;47.664;9.162;2023-07-20T02:30:00;20.00;72.50
6948;DHT22;3513;47.664;9.162;2023-07-20T02:32:25;20.10;72.50
6948;DHT22;3513;47.664;9.162;2023-07-20T02:34:51;19.90;72.40
6948;DHT22;3513;47.664;9.162;2023-07-20T02:37:17;19.90;72.90
6948;DHT22;3513;47.664;9.162;2023-07-20T02:39:43;19.90;74.40
6948;DHT22;3513;47.664;9.162;2023-07-20T02:42:08;19.80;75.00
6948;DHT22;3513;47.664;9.162;2023-07-20T02:44:34;19.80;74.40
6948;DHT22;3513;47.664;9.162;2023-07-20T02:46:59;19.70;74.50
6948;DHT22;3513;47.664;9.162;2023-07-20T02:49:25;19.70;75.40
6948;DHT22;3513;47.664;9.162;2023-07-20T02:51:51;19.70;74.30
6948;DHT22;3513;47.664;9.162;2023-07-20T02:54:16;19.70;75.00
6948;DHT22;3513;47.664;9.162;2023-07-20T02:56:42;19.60;75.30
6948;DHT22;3513;47.664;9.162;2023-07-20T02:59:08;19.60;74.50
6948;DHT22;3513;47.664;9.162;2023-07-20T03:01:34;19.60;74.50
6948;DHT22;3513;47.664;9.162;2023-07-20T03:03:59;19.60;74.80
6948;DHT22;3513;47.664;9.162;2023-07-20T03:06:25;19.50;74.90
6948;DHT22;3513;47.664;9.162;2023-07-20T03:08:50;19.50;74.90
6948;DHT22;3513;47.664;9.162;2023-07-20T03:11:19;19.50;75.60
6948;DHT22;3513;47.664;9.162;2023-07-20T03:13:46;19.60;74.30
6948;DHT22;3513;47.664;9.162;2023-07-20T03:16:13;19.60;74.70
6948;DHT22;3513;47.664;9.162;2023-07-20T03:18:41;19.60;75.20
6948;DHT22;3513;47.664;9.162;2023-07-20T03:21:08;19.60;75.10
6948;DHT22;3513;47.664;9.162;2023-07-20T03:23:34;19.70;73.90
6948;DHT22;3513;47.664;9.162;2023-07-20T03:26:00;19.60;71.70
6948;DHT22;3513;47.664;9.162;2023-07-20T03:28:26;19.60;71.30
6948;DHT22;3513;47.664;9.162;2023-07-20T03:30:58;19.50;70.40
6948;DHT22;3513;47.664;9.162;2023-07-20T03:33:28;19.50;70.80
6948;DHT22;3513;47.664;9.162;2023-07-20T03:35:55;19.50;72.00
6948;DHT22;3513;47.664;9.162;2023-07-20T03:38:21;19.50;73.00
6948;DHT22;3513;47.664;9.162;2023-07-20T03:41:00;19.50;73.70
6948;DHT22;3513;47.664;9.162;2023-07-20T03:43:27;19.50;74.20
6948;DHT22;3513;47.664;9.162;2023-07-20T03:45:53;19.50;75.20
6948;DHT22;3513;47.664;9.162;2023-07-20T03:48:21;19.60;75.50
6948;DHT22;3513;47.664;9.162;2023-07-20T03:50:49;19.60;75.20
6948;DHT22;3513;47.664;9.162;2023-07-20T03:53:16;19.50;75.00
6948;DHT22;3513;47.664;9.162;2023-07-20T03:55:45;19.50;75.20
6948;DHT22;3513;47.664;9.162;2023-07-20T03:58:12;19.50;75.40
6948;DHT22;3513;47.664;9.162;2023-07-20T04:00:38;19.50;75.40
6948;DHT22;3513;47.664;9.162;2023-07-20T04:03:04;19.50;73.40
6948;DHT22;3513;47.664;9.162;2023-07-20T04:05:29;19.40;73.40
6948;DHT22;3513;47.664;9.162;2023-07-20T04:07:55;19.50;74.30
6948;DHT22;3513;47.664;9.162;2023-07-20T04:10:21;19.50;73.40
6948;DHT22;3513;47.664;9.162;2023-07-20T04:12:46;19.40;73.40
6948;DHT22;3513;47.664;9.162;2023-07-20T04:15:13;19.40;72.60
6948;DHT22;3513;47.664;9.162;2023-07-20T04:17:39;19.40;73.50
6948;DHT22;3513;47.664;9.162;2023-07-20T04:20:05;19.40;74.70
6948;DHT22;3513;47.664;9.162;2023-07-20T04:22:31;19.50;74.10
6948;DHT22;3513;47.664;9.162;2023-07-20T04:24:57;19.50;72.80
6948;DHT22;3513;47.664;9.162;2023-07-20T04:27:22;19.50;70.70
6948;DHT22;3513;47.664;9.162;2023-07-20T04:29:48;19.50;71.00
6948;DHT22;3513;47.664;9.162;2023-07-20T04:32:13;19.60;71.70
6948;DHT22;3513;47.664;9.162;2023-07-20T04:34:39;19.70;72.50
6948;DHT22;3513;47.664;9.162;2023-07-20T04:37:04;19.70;73.30
6948;DHT22;3513;47.664;9.162;2023-07-20T04:39:30;19.70;73.10
6948;DHT22;3513;47.664;9.162;2023-07-20T04:41:56;19.70;72.90
6948;DHT22;3513;47.664;9.162;2023-07-20T04:44:22;19.80;72.50
6948;DHT22;3513;47.664;9.162;2023-07-20T04:46:47;19.80;71.40
6948;DHT22;3513;47.664;9.162;2023-07-20T04:49:13;19.80;71.80
6948;DHT22;3513;47.664;9.162;2023-07-20T04:51:39;19.80;72.10
6948;DHT22;3513;47.664;9.162;2023-07-20T04:54:05;19.70;71.20
6948;DHT22;3513;47.664;9.162;2023-07-20T04:56:30;19.70;71.90
6948;DHT22;3513;47.664;9.162;2023-07-20T04:58:56;19.70;72.30
6948;DHT22;3513;47.664;9.162;2023-07-20T05:01:23;19.80;72.30
6948;DHT22;3513;47.664;9.162;2023-07-20T05:03:48;19.70;71.90
6948;DHT22;3513;47.664;9.162;2023-07-20T05:06:14;19.80;71.70
6948;DHT22;3513;47.664;9.162;2023-07-20T05:08:40;19.80;72.10
6948;DHT22;3513;47.664;9.162;2023-07-20T05:11:05;19.80;71.50
6948;DHT22;3513;47.664;9.162;2023-07-20T05:13:32;19.90;70.70
6948;DHT22;3513;47.664;9.162;2023-07-20T05:15:58;19.80;69.20
6948;DHT22;3513;47.664;9.162;2023-07-20T05:18:23;19.90;69.60
6948;DHT22;3513;47.664;9.162;2023-07-20T05:20:50;19.90;69.50
6948;DHT22;3513;47.664;9.162;2023-07-20T05:23:17;19.90;69.80
6948;DHT22;3513;47.664;9.162;2023-07-20T05:25:43;20.00;69.10
6948;DHT22;3513;47.664;9.162;2023-07-20T05:28:09;20.00;68.20
6948;DHT22;3513;47.664;9.162;2023-07-20T05:30:35;20.00;68.10
6948;DHT22;3513;47.664;9.162;2023-07-20T05:33:00;20.00;67.40
6948;DHT22;3513;47.664;9.162;2023-07-20T05:35:26;20.00;67.50
6948;DHT22;3513;47.664;9.162;2023-07-20T05:37:52;20.00;67.30
6948;DHT22;3513;47.664;9.162;2023-07-20T05:40:18;20.10;66.60
6948;DHT22;3513;47.664;9.162;2023-07-20T05:42:47;20.10;66.50
6948;DHT22;3513;47.664;9.162;2023-07-20T05:45:15;20.10;66.40
6948;DHT22;3513;47.664;9.162;2023-07-20T05:47:41;20.10;65.30
6948;DHT22;3513;47.664;9.162;2023-07-20T05:50:07;20.20;65.60
6948;DHT22;3513;47.664;9.162;2023-07-20T05:52:33;20.20;64.50
6948;DHT22;3513;47.664;9.162;2023-07-20T05:54:58;20.30;64.80
6948;DHT22;3513;47.664;9.162;2023-07-20T05:57:24;20.30;65.30
6948;DHT22;3513;47.664;9.162;2023-07-20T05:59:50;20.40;65.00
6948;DHT22;3513;47.664;9.162;2023-07-20T06:02:16;20.50;65.80
6948;DHT22;3513;47.664;9.162;2023-07-20T06:04:41;20.60;65.20
6948;DHT22;3513;47.664;9.162;2023-07-20T06:07:07;20.60;64.40
6948;DHT22;3513;47.664;9.162;2023-07-20T06:09:33;20.70;63.40
6948;DHT22;3513;47.664;9.162;2023-07-20T06:11:59;20.80;63.90
6948;DHT22;3513;47.664;9.162;2023-07-20T06:14:25;20.90;64.20
6948;DHT22;3513;47.664;9.162;2023-07-20T06:16:50;21.10;62.40
6948;DHT22;3513;47.664;9.162;2023-07-20T06:19:16;21.10;62.00
6948;DHT22;3513;47.664;9.162;2023-07-20T06:21:41;21.20;61.00
6948;DHT22;3513;47.664;9.162;2023-07-20T06:24:07;21.10;62.10
6948;DHT22;3513;47.664;9.162;2023-07-20T06:26:33;21.10;61.60
6948;DHT22;3513;47.664;9.162;2023-07-20T06:29:07;21.10;62.40
6948;DHT22;3513;47.664;9.162;2023-07-20T06:31:33;21.20;61.40
6948;DHT22;3513;47.664;9.162;2023-07-20T06:33:59;21.30;60.20
6948;DHT22;3513;47.664;9.162;2023-07-20T06:36:25;21.40;60.50
6948;DHT22;3513;47.664;9.162;2023-07-20T06:38:51;21.50;61.00
6948;DHT22;3513;47.664;9.162;2023-07-20T06:41:17;21.60;61.30
6948;DHT22;3513;47.664;9.162;2023-07-20T06:43:43;21.60;59.40
6948;DHT22;3513;47.664;9.162;2023-07-20T06:46:09;21.70;59.90
6948;DHT22;3513;47.664;9.162;2023-07-20T06:48:34;21.80;60.00
6948;DHT22;3513;47.664;9.162;2023-07-20T06:51:00;21.90;59.50
6948;DHT22;3513;47.664;9.162;2023-07-20T06:53:26;21.90;59.10
6948;DHT22;3513;47.664;9.162;2023-07-20T06:55:51;21.80;58.50
6948;DHT22;3513;47.664;9.162;2023-07-20T06:58:17;21.80;59.80
6948;DHT22;3513;47.664;9.162;2023-07-20T07:00:44;21.80;59.50
6948;DHT22;3513;47.664;9.162;2023-07-20T07:03:10;21.90;59.00
6948;DHT22;3513;47.664;9.162;2023-07-20T07:05:36;21.90;57.50
6948;DHT22;3513;47.664;9.162;2023-07-20T07:08:06;21.90;57.80
6948;DHT22;3513;47.664;9.162;2023-07-20T07:10:32;21.90;58.10
6948;DHT22;3513;47.664;9.162;2023-07-20T07:12:58;21.90;57.60
6948;DHT22;3513;47.664;9.162;2023-07-20T07:15:23;21.90;58.30
6948;DHT22;3513;47.664;9.162;2023-07-20T07:17:49;22.00;59.00
6948;DHT22;3513;47.664;9.162;2023-07-20T07:20:16;22.00;59.70
6948;DHT22;3513;47.664;9.162;2023-07-20T07:22:42;22.00;59.80
6948;DHT22;3513;47.664;9.162;2023-07-20T07:25:09;22.00;60.30
6948;DHT22;3513;47.664;9.162;2023-07-20T07:27:35;22.00;59.60
6948;DHT22;3513;47.664;9.162;2023-07-20T07:30:02;22.10;60.10
6948;DHT22;3513;47.664;9.162;2023-07-20T07:32:28;22.10;60.40
6948;DHT22;3513;47.664;9.162;2023-07-20T07:34:54;22.10;59.20
6948;DHT22;3513;47.664;9.162;2023-07-20T07:37:19;22.30;59.50
6948;DHT22;3513;47.664;9.162;2023-07-20T07:39:45;22.30;58.50
6948;DHT22;3513;47.664;9.162;2023-07-20T07:42:12;22.30;57.70
6948;DHT22;3513;47.664;9.162;2023-07-20T07:44:38;22.20;59.10
6948;DHT22;3513;47.664;9.162;2023-07-20T07:47:04;22.20;59.10
6948;DHT22;3513;47.664;9.162;2023-07-20T07:49:30;22.10;58.80
6948;DHT22;3513;47.664;9.162;2023-07-20T07:51:57;22.10;59.20
6948;DHT22;3513;47.664;9.162;2023-07-20T07:54:28;22.10;58.30
6948;DHT22;3513;47.664;9.162;2023-07-20T07:56:54;22.20;57.60
6948;DHT22;3513;47.664;9.162;2023-07-20T07:59:20;22.20;57.90
6948;DHT22;3513;47.664;9.162;2023-07-20T08:01:45;22.10;59.40
6948;DHT22;3513;47.664;9.162;2023-07-20T08:04:11;22.20;58.10
6948;DHT22;3513;47.664;9.162;2023-07-20T08:06:37;21.60;57.00
6948;DHT22;3513;47.664;9.162;2023-07-20T08:09:02;22.30;58.20
6948;DHT22;3513;47.664;9.162;2023-07-20T08:11:28;22.30;57.70
6948;DHT22;3513;47.664;9.162;2023-07-20T08:13:58;22.40;58.10
6948;DHT22;3513;47.664;9.162;2023-07-20T08:16:24;22.50;58.20
6948;DHT22;3513;47.664;9.162;2023-07-20T08:19:00;22.50;57.60
6948;DHT22;3513;47.664;9.162;2023-07-20T08:21:28;22.60;56.80
6948;DHT22;3513;47.664;9.162;2023-07-20T08:23:54;22.30;56.70
6948;DHT22;3513;47.664;9.162;2023-07-20T08:26:23;22.30;57.40
6948;DHT22;3513;47.664;9.162;2023-07-20T08:28:57;21.90;58.00
6948;DHT22;3513;47.664;9.162;2023-07-20T08:31:26;22.50;56.90
6948;DHT22;3513;47.664;9.162;2023-07-20T08:33:53;22.50;57.10
6948;DHT22;3513;47.664;9.162;2023-07-20T08:36:40;22.60;55.90
6948;DHT22;3513;47.664;9.162;2023-07-20T08:39:11;23.10;57.40
6948;DHT22;3513;47.664;9.162;2023-07-20T08:41:42;22.70;55.70
6948;DHT22;3513;47.664;9.162;2023-07-20T08:44:20;22.80;56.70
6948;DHT22;3513;47.664;9.162;2023-07-20T08:46:49;23.50;56.30
6948;DHT22;3513;47.664;9.162;2023-07-20T08:49:17;22.90;55.60
6948;DHT22;3513;47.664;9.162;2023-07-20T08:51:45;22.40;56.20
6948;DHT22;3513;47.664;9.162;2023-07-20T08:54:12;23.00;55.70
6948;DHT22;3513;47.664;9.162;2023-07-20T08:56:39;23.00;55.90
6948;DHT22;3513;47.664;9.162;2023-07-20T08:59:14;23.00;56.20
6948;DHT22;3513;47.664;9.162;2023-07-20T09:01:51;22.80;55.60
6948;DHT22;3513;47.664;9.162;2023-07-20T09:04:21;22.90;56.50
6948;DHT22;3513;47.664;9.162;2023-07-20T09:07:05;23.00;56.50
6948;DHT22;3513;47.664;9.162;2023-07-20T09:09:33;22.70;55.60
6948;DHT22;3513;47.664;9.162;2023-07-20T09:12:19;23.00;56.50
6948;DHT22;3513;47.664;9.162;2023-07-20T09:14:58;23.10;57.30
6948;DHT22;3513;47.664;9.162;2023-07-20T09:17:49;22.60;56.70
6948;DHT22;3513;47.664;9.162;2023-07-20T09:20:26;23.30;55.40
6948;DHT22;3513;47.664;9.162;2023-07-20T09:25:44;24.00;55.70
6948;DHT22;3513;47.664;9.162;2023-07-20T09:28:16;23.60;55.50
6948;DHT22;3513;47.664;9.162;2023-07-20T09:30:41;23.70;55.90
6948;DHT22;3513;47.664;9.162;2023-07-20T09:33:18;23.80;55.50
6948;DHT22;3513;47.664;9.162;2023-07-20T09:35:44;23.70;54.60
6948;DHT22;3513;47.664;9.162;2023-07-20T09:38:09;23.80;55.20
6948;DHT22;3513;47.664;9.162;2023-07-20T09:40:37;24.00;55.40
6948;DHT22;3513;47.664;9.162;2023-07-20T09:43:07;24.20;54.30
6948;DHT22;3513;47.664;9.162;2023-07-20T09:45:40;24.30;53.80
6948;DHT22;3513;47.664;9.162;2023-07-20T09:48:10;24.30;55.20
6948;DHT22;3513;47.664;9.162;2023-07-20T09:50:49;24.50;54.30
6948;DHT22;3513;47.664;9.162;2023-07-20T09:53:15;24.50;53.30
6948;DHT22;3513;47.664;9.162;2023-07-20T09:55:44;24.70;53.90
6948;DHT22;3513;47.664;9.162;2023-07-20T09:58:10;24.70;52.90
6948;DHT22;3513;47.664;9.162;2023-07-20T10:00:37;24.80;53.10
6948;DHT22;3513;47.664;9.162;2023-07-20T10:03:05;25.00;53.90
6948;DHT22;3513;47.664;9.162;2023-07-20T10:05:36;25.10;54.60
6948;DHT22;3513;47.664;9.162;2023-07-20T10:08:03;25.30;54.60
6948;DHT22;3513;47.664;9.162;2023-07-20T10:10:33;25.60;54.20
6948;DHT22;3513;47.664;9.162;2023-07-20T10:13:00;25.90;53.60
6948;DHT22;3513;47.664;9.162;2023-07-20T10:15:36;26.10;52.40
6948;DHT22;3513;47.664;9.162;2023-07-20T10:18:07;26.20;51.50
6948;DHT22;3513;47.664;9.162;2023-07-20T10:20:36;26.30;51.40
6948;DHT22;3513;47.664;9.162;2023-07-20T10:23:03;26.40;51.60
6948;DHT22;3513;47.664;9.162;2023-07-20T10:25:29;26.60;50.90
6948;DHT22;3513;47.664;9.162;2023-07-20T10:27:57;26.50;51.00
6948;DHT22;3513;47.664;9.162;2023-07-20T10:30:22;26.50;49.20
6948;DHT22;3513;47.664;9.162;2023-07-20T10:32:49;26.20;49.50
6948;DHT22;3513;47.664;9.162;2023-07-20T10:35:16;26.10;50.20
6948;DHT22;3513;47.664;9.162;2023-07-20T10:38:02;26.20;51.60
6948;DHT22;3513;47.664;9.162;2023-07-20T10:40:38;26.40;50.30
6948;DHT22;3513;47.664;9.162;2023-07-20T10:43:08;26.60;51.40
6948;DHT22;3513;47.664;9.162;2023-07-20T10:48:03;26.50;49.40
6948;DHT22;3513;47.664;9.162;2023-07-20T10:50:30;26.30;49.90
6948;DHT22;3513;47.664;9.162;2023-07-20T10:53:10;26.10;49.70
6948;DHT22;3513;47.664;9.162;2023-07-20T10:55:36;26.10;50.60
6948;DHT22;3513;47.664;9.162;2023-07-20T10:58:13;26.20;50.80
6948;DHT22;3513;47.664;9.162;2023-07-20T11:03:34;26.70;50.80
6948;DHT22;3513;47.664;9.162;2023-07-20T11:09:08;27.20;50.60
6948;DHT22;3513;47.664;9.162;2023-07-20T11:11:41;27.30;49.40
6948;DHT22;3513;47.664;9.162;2023-07-20T11:14:28;27.40;48.70
6948;DHT22;3513;47.664;9.162;2023-07-20T11:16:54;27.30;48.60
6948;DHT22;3513;47.664;9.162;2023-07-20T11:19:24;27.10;48.10
6948;DHT22;3513;47.664;9.162;2023-07-20T11:21:57;27.00;48.70
6948;DHT22;3513;47.664;9.162;2023-07-20T11:24:23;26.80;49.10
6948;DHT22;3513;47.664;9.162;2023-07-20T11:26:53;26.40;49.80
6948;DHT22;3513;47.664;9.162;2023-07-20T11:29:21;26.30;51.40
6948;DHT22;3513;47.664;9.162;2023-07-20T11:31:49;26.40;51.20
6948;DHT22;3513;47.664;9.162;2023-07-20T11:34:20;26.60;51.10
6948;DHT22;3513;47.664;9.162;2023-07-20T11:36:49;26.70;49.40
6948;DHT22;3513;47.664;9.162;2023-07-20T11:39:16;26.70;49.00
6948;DHT22;3513;47.664;9.162;2023-07-20T11:41:50;26.50;49.10
6948;DHT22;3513;47.664;9.162;2023-07-20T11:44:17;26.30;49.70
6948;DHT22;3513;47.664;9.162;2023-07-20T11:46:43;26.10;51.70
6948;DHT22;3513;47.664;9.162;2023-07-20T11:49:10;26.20;51.00
6948;DHT22;3513;47.664;9.162;2023-07-20T11:51:36;26.10;50.50
6948;DHT22;3513;47.664;9.162;2023-07-20T11:54:04;25.90;51.50
6948;DHT22;3513;47.664;9.162;2023-07-20T11:56:30;25.90;50.80
6948;DHT22;3513;47.664;9.162;2023-07-20T11:58:57;26.10;50.80
6948;DHT22;3513;47.664;9.162;2023-07-20T12:01:27;26.30;50.90
6948;DHT22;3513;47.664;9.162;2023-07-20T12:04:01;26.60;50.30
6948;DHT22;3513;47.664;9.162;2023-07-20T12:06:28;26.90;51.30
6948;DHT22;3513;47.664;9.162;2023-07-20T12:08:58;27.30;51.80
6948;DHT22;3513;47.664;9.162;2023-07-20T12:11:50;27.70;50.30
6948;DHT22;3513;47.664;9.162;2023-07-20T12:14:16;28.20;49.90
6948;DHT22;3513;47.664;9.162;2023-07-20T12:16:42;28.60;48.90
6948;DHT22;3513;47.664;9.162;2023-07-20T12:19:12;28.80;46.90
6948;DHT22;3513;47.664;9.162;2023-07-20T12:21:40;28.70;46.60
6948;DHT22;3513;47.664;9.162;2023-07-20T12:24:07;28.50;45.10
6948;DHT22;3513;47.664;9.162;2023-07-20T12:26:34;28.30;44.90
6948;DHT22;3513;47.664;9.162;2023-07-20T12:29:00;28.20;45.00
6948;DHT22;3513;47.664;9.162;2023-07-20T12:31:27;28.20;45.80
6948;DHT22;3513;47.664;9.162;2023-07-20T12:33:56;28.30;46.10
6948;DHT22;3513;47.664;9.162;2023-07-20T12:36:22;28.10;45.50
6948;DHT22;3513;47.664;9.162;2023-07-20T12:38:48;27.40;45.80
6948;DHT22;3513;47.664;9.162;2023-07-20T12:41:13;27.00;47.30
6948;DHT22;3513;47.664;9.162;2023-07-20T12:43:40;26.90;48.30
6948;DHT22;3513;47.664;9.162;2023-07-20T12:46:06;26.80;48.90
6948;DHT22;3513;47.664;9.162;2023-07-20T12:48:31;26.90;48.10
6948;DHT22;3513;47.664;9.162;2023-07-20T12:50:57;27.00;49.00
6948;DHT22;3513;47.664;9.162;2023-07-20T12:53:22;27.30;48.40
6948;DHT22;3513;47.664;9.162;2023-07-20T12:55:48;27.70;46.50
6948;DHT22;3513;47.664;9.162;2023-07-20T12:58:14;28.10;46.40
6948;DHT22;3513;47.664;9.162;2023-07-20T13:00:39;28.40;45.80
6948;DHT22;3513;47.664;9.162;2023-07-20T13:03:06;28.60;45.20
6948;DHT22;3513;47.664;9.162;2023-07-20T13:05:32;29.10;45.10
6948;DHT22;3513;47.664;9.162;2023-07-20T13:07:58;29.40;43.90
6948;DHT22;3513;47.664;9.162;2023-07-20T13:10:24;29.60;44.00
6948;DHT22;3513;47.664;9.162;2023-07-20T13:12:50;29.80;41.70
6948;DHT22;3513;47.664;9.162;2023-07-20T13:15:16;29.40;42.40
6948;DHT22;3513;47.664;9.162;2023-07-20T13:17:42;29.20;42.30
6948;DHT22;3513;47.664;9.162;2023-07-20T13:20:09;29.10;41.70
6948;DHT22;3513;47.664;9.162;2023-07-20T13:22:37;29.10;42.40
6948;DHT22;3513;47.664;9.162;2023-07-20T13:25:03;29.10;40.00
6948;DHT22;3513;47.664;9.162;2023-07-20T13:27:29;29.40;40.50
6948;DHT22;3513;47.664;9.162;2023-07-20T13:29:56;29.60;40.90
6948;DHT22;3513;47.664;9.162;2023-07-20T13:32:22;30.00;37.40
6948;DHT22;3513;47.664;9.162;2023-07-20T13:34:47;29.70;37.70
6948;DHT22;3513;47.664;9.162;2023-07-20T13:37:14;29.60;38.80
6948;DHT22;3513;47.664;9.162;2023-07-20T13:39:39;30.10;43.60
6948;DHT22;3513;47.664;9.162;2023-07-20T13:42:06;30.80;44.00
6948;DHT22;3513;47.664;9.162;2023-07-20T13:44:31;31.40;42.10
6948;DHT22;3513;47.664;9.162;2023-07-20T13:46:57;31.90;40.30
6948;DHT22;3513;47.664;9.162;2023-07-20T13:49:23;32.30;38.70
6948;DHT22;3513;47.664;9.162;2023-07-20T13:51:49;32.50;39.60
6948;DHT22;3513;47.664;9.162;2023-07-20T13:54:14;32.90;41.10
6948;DHT22;3513;47.664;9.162;2023-07-20T13:56:40;33.30;39.70
6948;DHT22;3513;47.664;9.162;2023-07-20T13:59:05;33.70;39.30
6948;DHT22;3513;47.664;9.162;2023-07-20T14:01:31;34.00;36.60
6948;DHT22;3513;47.664;9.162;2023-07-20T14:03:59;34.30;36.20
6948;DHT22;3513;47.664;9.162;2023-07-20T14:06:25;34.60;36.00
6948;DHT22;3513;47.664;9.162;2023-07-20T14:08:51;34.80;36.80
6948;DHT22;3513;47.664;9.162;2023-07-20T14:11:18;34.90;37.00
6948;DHT22;3513;47.664;9.162;2023-07-20T14:13:44;35.00;37.10
6948;DHT22;3513;47.664;9.162;2023-07-20T14:16:10;35.00;36.90
6948;DHT22;3513;47.664;9.162;2023-07-20T14:18:36;35.10;36.30
6948;DHT22;3513;47.664;9.162;2023-07-20T14:21:01;35.20;36.40
6948;DHT22;3513;47.664;9.162;2023-07-20T14:23:28;35.30;36.90
6948;DHT22;3513;47.664;9.162;2023-07-20T14:25:54;35.40;36.50
6948;DHT22;3513;47.664;9.162;2023-07-20T14:28:20;35.50;36.30
6948;DHT22;3513;47.664;9.162;2023-07-20T14:30:46;35.60;35.80
6948;DHT22;3513;47.664;9.162;2023-07-20T14:33:12;35.80;34.60
6948;DHT22;3513;47.664;9.162;2023-07-20T14:35:37;36.00;34.50
6948;DHT22;3513;47.664;9.162;2023-07-20T14:38:03;36.20;34.40
6948;DHT22;3513;47.664;9.162;2023-07-20T14:40:29;36.30;33.70
6948;DHT22;3513;47.664;9.162;2023-07-20T14:42:55;36.50;33.50
6948;DHT22;3513;47.664;9.162;2023-07-20T14:45:21;36.60;32.80
6948;DHT22;3513;47.664;9.162;2023-07-20T14:47:47;36.70;32.70
6948;DHT22;3513;47.664;9.162;2023-07-20T14:50:19;36.80;32.20
6948;DHT22;3513;47.664;9.162;2023-07-20T14:52:45;37.00;31.60
6948;DHT22;3513;47.664;9.162;2023-07-20T14:55:10;37.20;31.40
6948;DHT22;3513;47.664;9.162;2023-07-20T14:57:36;37.50;31.00
6948;DHT22;3513;47.664;9.162;2023-07-20T15:00:03;37.70;30.20
6948;DHT22;3513;47.664;9.162;2023-07-20T15:02:33;37.70;29.90
6948;DHT22;3513;47.664;9.162;2023-07-20T15:04:59;37.90;29.50
6948;DHT22;3513;47.664;9.162;2023-07-20T15:07:25;38.10;30.00
6948;DHT22;3513;47.664;9.162;2023-07-20T15:09:51;38.30;30.10
6948;DHT22;3513;47.664;9.162;2023-07-20T15:12:16;38.30;29.80
6948;DHT22;3513;47.664;9.162;2023-07-20T15:14:43;38.20;29.90
6948;DHT22;3513;47.664;9.162;2023-07-20T15:17:09;38.30;29.30
6948;DHT22;3513;47.664;9.162;2023-07-20T15:19:35;38.30;29.40
6948;DHT22;3513;47.664;9.162;2023-07-20T15:22:01;38.40;29.90
6948;DHT22;3513;47.664;9.162;2023-07-20T15:24:28;38.60;30.40
6948;DHT22;3513;47.664;9.162;2023-07-20T15:26:54;38.80;29.50
6948;DHT22;3513;47.664;9.162;2023-07-20T15:29:20;39.10;29.00
6948;DHT22;3513;47.664;9.162;2023-07-20T15:31:46;39.50;28.50
6948;DHT22;3513;47.664;9.162;2023-07-20T15:34:12;39.80;28.40
6948;DHT22;3513;47.664;9.162;2023-07-20T15:36:39;40.10;27.60
6948;DHT22;3513;47.664;9.162;2023-07-20T15:39:06;40.30;27.70
6948;DHT22;3513;47.664;9.162;2023-07-20T15:41:31;40.40;27.80
6948;DHT22;3513;47.664;9.162;2023-07-20T15:43:57;40.40;28.00
6948;DHT22;3513;47.664;9.162;2023-07-20T15:48:48;40.30;27.80
6948;DHT22;3513;47.664;9.162;2023-07-20T15:51:14;40.20;27.60
6948;DHT22;3513;47.664;9.162;2023-07-20T15:53:40;40.00;27.30
6948;DHT22;3513;47.664;9.162;2023-07-20T15:56:06;39.80;27.00
6948;DHT22;3513;47.664;9.162;2023-07-20T15:58:32;39.90;26.80
6948;DHT22;3513;47.664;9.162;2023-07-20T16:00:58;40.10;26.20
6948;DHT22;3513;47.664;9.162;2023-07-20T16:03:24;40.20;26.00
6948;DHT22;3513;47.664;9.162;2023-07-20T16:05:54;40.30;25.90
6948;DHT22;3513;47.664;9.162;2023-07-20T16:08:19;40.40;26.30
6948;DHT22;3513;47.664;9.162;2023-07-20T16:10:45;40.30;26.30
6948;DHT22;3513;47.664;9.162;2023-07-20T16:13:11;40.30;26.60
6948;DHT22;3513;47.664;9.162;2023-07-20T16:15:36;40.50;27.10
6948;DHT22;3513;47.664;9.162;2023-07-20T16:18:02;40.70;26.40
6948;DHT22;3513;47.664;9.162;2023-07-20T16:20:28;40.90;26.00
6948;DHT22;3513;47.664;9.162;2023-07-20T16:22:54;41.30;25.60